createdAt,value
2019-04-25T00:02:24.126Z,99643.17
2019-04-25T00:04:53.670Z,99630.89
2019-04-25T00:07:23.366Z,99633.55
2019-04-25T00:09:53.932Z,99628.76
2019-04-25T00:12:24.138Z,99615.70
2019-04-25T00:14:53.745Z,99602.41
2019-04-25T00:17:24.563Z,99596.80
2019-04-25T00:19:54.132Z,99609.92
2019-04-25T00:22:28.523Z,99610.07
2019-04-25T00:25:18.082Z,99612.13
2019-04-25T00:27:48.525Z,99605.74
2019-04-25T00:30:19.207Z,99598.19
2019-04-25T00:32:49.298Z,99600.06
2019-04-25T00:35:18.910Z,99602.16
2019-04-25T00:37:48.394Z,99593.45
2019-04-25T00:40:17.946Z,99588.66
2019-04-25T00:42:48.205Z,99590.73
2019-04-25T00:45:17.872Z,99590.67
2019-04-25T00:47:47.747Z,99589.19
2019-04-25T00:50:17.388Z,99590.69
2019-04-25T00:52:46.870Z,99590.84
2019-04-25T00:55:26.097Z,99593.14
2019-04-25T00:57:49.303Z,99596.39
2019-04-25T01:00:21.694Z,99602.61
2019-04-25T01:02:54.561Z,99608.23
2019-04-25T01:05:24.159Z,99610.20
2019-04-25T01:07:54.411Z,99606.06
2019-04-25T01:10:24.040Z,99616.41
2019-04-25T01:12:53.769Z,99624.45
2019-04-25T01:15:24.111Z,99635.23
2019-04-25T01:17:53.659Z,99637.39
2019-04-25T01:20:23.961Z,99644.64
2019-04-25T01:22:54.279Z,99643.05
2019-04-25T01:25:24.923Z,99659.56
2019-04-25T01:27:54.798Z,99655.44
2019-04-25T01:30:26.225Z,99653.83
2019-04-25T01:32:55.705Z,99660.94
2019-04-25T01:35:27.005Z,99668.97
2019-04-25T01:38:06.762Z,99659.56
2019-04-25T01:40:54.447Z,99661.84
2019-04-25T01:43:43.684Z,99662.88
2019-04-25T01:46:14.871Z,99665.06
2019-04-25T01:48:44.497Z,99677.23
2019-04-25T01:51:14.365Z,99674.48
2019-04-25T01:53:44.217Z,99674.48
2019-04-25T01:56:14.186Z,99665.63
2019-04-25T01:58:43.918Z,99667.59
2019-04-25T02:01:15.133Z,99659.90
2019-04-25T02:03:44.691Z,99660.72
2019-04-25T02:06:14.187Z,99662.31
2019-04-25T02:08:44.112Z,99663.91
2019-04-25T02:11:15.421Z,99653.13
2019-04-25T02:13:45.051Z,99662.17
2019-04-25T02:16:14.836Z,99671.47
2019-04-25T02:18:44.368Z,99678.35
2019-04-25T02:21:14.039Z,99680.17
2019-04-25T02:23:44.183Z,99681.55
2019-04-25T02:26:16.793Z,99690.03
2019-04-25T02:28:45.120Z,99684.75
2019-04-25T02:31:17.853Z,99683.94
2019-04-25T02:33:45.794Z,99684.53
2019-04-25T02:36:15.362Z,99686.35
2019-04-25T02:38:44.825Z,99685.09
2019-04-25T02:41:14.927Z,99695.54
2019-04-25T02:43:45.204Z,99699.89
2019-04-25T02:46:19.052Z,99698.52
2019-04-25T02:48:48.374Z,99697.92
2019-04-25T02:51:34.823Z,99690.48
2019-04-25T02:54:06.750Z,99691.86
2019-04-25T02:56:38.721Z,99686.58
2019-04-25T02:59:08.768Z,99690.48
2019-04-25T03:01:37.748Z,99686.58
2019-04-25T03:04:10.718Z,99687.14
2019-04-25T03:06:38.475Z,99689.10
2019-04-25T03:09:10.734Z,99679.47
2019-04-25T03:11:40.581Z,99683.59
2019-04-25T03:14:10.445Z,99679.47
2019-04-25T03:16:40.075Z,99687.73
2019-04-25T03:19:18.103Z,99685.76
2019-04-25T03:21:49.318Z,99668.45
2019-04-25T03:24:18.916Z,99675.90
2019-04-25T03:26:48.532Z,99676.49
2019-04-25T03:29:18.002Z,99674.30
2019-04-25T03:31:47.572Z,99679.47
2019-04-25T03:34:20.546Z,99681.77
2019-04-25T03:36:48.298Z,99692.78
2019-04-25T03:39:17.795Z,99695.31
2019-04-25T03:41:47.256Z,99690.38
2019-04-25T03:44:16.835Z,99689.92
2019-04-25T03:46:46.273Z,99693.27
2019-04-25T03:49:15.835Z,99702.91
2019-04-25T03:51:45.301Z,99694.42
2019-04-25T03:54:14.855Z,99694.42
2019-04-25T03:56:53.282Z,99694.20
2019-04-25T03:59:16.116Z,99706.58
2019-04-25T04:01:45.713Z,99710.71
2019-04-25T04:04:16.248Z,99713.23
2019-04-25T04:06:45.951Z,99706.58
2019-04-25T04:09:15.456Z,99701.86
2019-04-25T04:11:44.920Z,99709.33
2019-04-25T04:14:15.622Z,99707.95
2019-04-25T04:17:05.067Z,99701.30
2019-04-25T04:19:35.937Z,99705.88
2019-04-25T04:22:09.829Z,99697.84
2019-04-25T04:24:40.951Z,99699.22
2019-04-25T04:27:12.236Z,99697.84
2019-04-25T04:29:43.208Z,99696.69
2019-04-25T04:32:14.397Z,99705.40
2019-04-25T04:34:45.529Z,99702.88
2019-04-25T04:37:16.175Z,99712.73
2019-04-25T04:39:45.777Z,99710.05
2019-04-25T04:42:16.108Z,99712.47
2019-04-25T04:44:45.697Z,99709.94
2019-04-25T04:47:15.512Z,99721.85
2019-04-25T04:49:45.276Z,99712.07
2019-04-25T04:52:15.792Z,99728.37
2019-04-25T04:54:45.438Z,99717.43
2019-04-25T04:57:26.644Z,99719.92
2019-04-25T04:59:46.121Z,99726.55
2019-04-25T05:02:20.702Z,99727.66
2019-04-25T05:04:49.943Z,99718.20
2019-04-25T05:07:39.347Z,99729.21
2019-04-25T05:10:08.943Z,99734.09
2019-04-25T05:12:38.435Z,99736.23
2019-04-25T05:15:09.134Z,99735.63
2019-04-25T05:17:38.594Z,99721.02
2019-04-25T05:20:08.399Z,99729.45
2019-04-25T05:22:37.933Z,99714.02
2019-04-25T05:25:08.263Z,99717.66
2019-04-25T05:27:56.731Z,99710.49
2019-04-25T05:30:11.558Z,99706.30
2019-04-25T05:32:41.089Z,99699.94
2019-04-25T05:35:10.844Z,99709.53
2019-04-25T05:37:40.384Z,99708.91
2019-04-25T05:40:10.258Z,99706.88
2019-04-25T05:42:59.969Z,99706.03
2019-04-25T05:45:34.080Z,99710.09
2019-04-25T05:48:05.676Z,99705.89
2019-04-25T05:50:35.014Z,99708.15
2019-04-25T05:53:04.556Z,99728.78
2019-04-25T05:55:34.431Z,99735.77
2019-04-25T05:58:04.073Z,99739.50
2019-04-25T06:00:34.065Z,99734.34
2019-04-25T06:03:03.862Z,99738.84
2019-04-25T06:05:33.793Z,99728.38
2019-04-25T06:08:04.359Z,99737.62
2019-04-25T06:10:47.283Z,99735.56
2019-04-25T06:13:30.600Z,99737.11
2019-04-25T06:16:03.452Z,99749.71
2019-04-25T06:18:41.904Z,99757.19
2019-04-25T06:21:13.332Z,99760.73
2019-04-25T06:23:49.951Z,99761.38
2019-04-25T06:26:32.721Z,99750.35
2019-04-25T06:28:57.089Z,99757.16
2019-04-25T06:31:23.820Z,99750.48
2019-04-25T06:33:53.951Z,99739.42
2019-04-25T06:36:24.549Z,99730.13
2019-04-25T06:38:54.841Z,99742.22
2019-04-25T06:41:25.879Z,99744.80
2019-04-25T06:43:57.150Z,99750.11
2019-04-25T06:46:44.309Z,99741.58
2019-04-25T06:49:15.428Z,99743.33
2019-04-25T06:51:51.862Z,99747.84
2019-04-25T06:54:22.003Z,99753.49
2019-04-25T06:56:53.533Z,99763.91
2019-04-25T06:59:25.962Z,99770.34
2019-04-25T07:01:56.214Z,99777.98
2019-04-25T07:04:26.989Z,99780.27
2019-04-25T07:07:09.390Z,99780.95
2019-04-25T07:09:29.679Z,99787.02
2019-04-25T07:11:59.436Z,99798.00
2019-04-25T07:14:29.519Z,99791.19
2019-04-25T07:16:59.083Z,99791.09
2019-04-25T07:19:28.711Z,99795.95
2019-04-25T07:21:58.314Z,99791.66
2019-04-25T07:24:28.790Z,99792.73
2019-04-25T07:27:11.833Z,99801.53
2019-04-25T07:29:43.666Z,99807.55
2019-04-25T07:32:20.219Z,99804.47
2019-04-25T07:34:49.788Z,99802.55
2019-04-25T07:37:19.398Z,99801.83
2019-04-25T07:39:49.092Z,99795.34
2019-04-25T07:42:18.742Z,99807.91
2019-04-25T07:44:52.526Z,99801.79
2019-04-25T07:47:19.560Z,99802.44
2019-04-25T07:49:49.027Z,99801.53
2019-04-25T07:52:18.593Z,99810.92
2019-04-25T07:54:48.076Z,99808.62
2019-04-25T07:57:17.532Z,99820.38
2019-04-25T07:59:47.110Z,99821.39
2019-04-25T08:02:16.890Z,99818.84
2019-04-25T08:04:46.364Z,99835.20
2019-04-25T08:07:15.913Z,99833.06
2019-04-25T08:09:45.460Z,99826.30
2019-04-25T08:12:15.016Z,99831.10
2019-04-25T08:14:46.264Z,99827.36
2019-04-25T08:17:17.452Z,99835.52
2019-04-25T08:19:47.586Z,99831.94
2019-04-25T08:22:17.204Z,99832.74
2019-04-25T08:24:47.068Z,99843.50
2019-04-25T08:27:16.561Z,99839.13
2019-04-25T08:29:46.575Z,99831.75
2019-04-25T08:32:16.162Z,99835.15
2019-04-25T08:34:45.637Z,99842.31
2019-04-25T08:37:20.339Z,99837.93
2019-04-25T08:39:46.352Z,99843.50
2019-04-25T08:42:15.904Z,99848.48
2019-04-25T08:44:45.372Z,99836.77
2019-04-25T08:47:14.857Z,99841.73
2019-04-25T08:49:46.205Z,99860.84
2019-04-25T08:52:15.778Z,99850.54
2019-04-25T08:54:47.720Z,99845.00
2019-04-25T08:57:18.905Z,99845.39
2019-04-25T09:00:06.157Z,99849.77
2019-04-25T09:02:44.670Z,99840.41
2019-04-25T09:05:18.836Z,99833.63
2019-04-25T09:07:48.400Z,99836.42
2019-04-25T09:10:18.008Z,99837.23
2019-04-25T09:12:47.524Z,99832.03
2019-04-25T09:15:17.397Z,99831.23
2019-04-25T09:17:47.253Z,99833.41
2019-04-25T09:20:17.164Z,99833.61
2019-04-25T09:22:46.669Z,99830.02
2019-04-25T09:25:16.298Z,99835.20
2019-04-25T09:27:47.429Z,99827.66
2019-04-25T09:30:18.700Z,99823.47
2019-04-25T09:32:48.266Z,99819.27
2019-04-25T09:35:20.127Z,99818.47
2019-04-25T09:37:49.296Z,99811.67
2019-04-25T09:40:19.086Z,99810.64
2019-04-25T09:42:50.197Z,99803.03
2019-04-25T09:45:19.906Z,99801.02
2019-04-25T09:47:51.004Z,99784.44
2019-04-25T09:50:37.503Z,99787.96
2019-04-25T09:53:15.488Z,99787.29
2019-04-25T09:55:59.107Z,99782.38
2019-04-25T09:58:30.257Z,99779.08
2019-04-25T10:01:01.519Z,99786.68
2019-04-25T10:03:31.001Z,99782.53
2019-04-25T10:06:00.560Z,99769.59
2019-04-25T10:08:30.069Z,99781.66
2019-04-25T10:10:59.615Z,99775.16
2019-04-25T10:13:29.111Z,99773.70
2019-04-25T10:16:12.414Z,99787.61
2019-04-25T10:18:43.682Z,99782.95
2019-04-25T10:21:14.518Z,99779.94
2019-04-25T10:23:46.410Z,99782.73
2019-04-25T10:26:15.591Z,99769.93
2019-04-25T10:28:45.326Z,99778.45
2019-04-25T10:31:14.938Z,99784.21
2019-04-25T10:33:46.685Z,99790.93
2019-04-25T10:36:16.241Z,99776.22
2019-04-25T10:39:01.502Z,99788.32
2019-04-25T10:41:17.174Z,99773.02
2019-04-25T10:43:46.875Z,99765.32
2019-04-25T10:46:16.911Z,99768.58
2019-04-25T10:48:46.492Z,99764.27
2019-04-25T10:51:15.950Z,99748.81
2019-04-25T10:53:46.925Z,99747.38
2019-04-25T10:56:16.536Z,99736.95
2019-04-25T10:58:46.719Z,99746.37
2019-04-25T11:01:16.450Z,99728.92
2019-04-25T11:04:04.679Z,99733.94
2019-04-25T11:06:34.460Z,99737.96
2019-04-25T11:09:05.702Z,99731.77
2019-04-25T11:11:36.729Z,99734.28
2019-04-25T11:14:07.605Z,99737.19
2019-04-25T11:16:37.380Z,99742.37
2019-04-25T11:19:07.092Z,99735.55
2019-04-25T11:21:36.723Z,99734.05
2019-04-25T11:24:06.504Z,99736.63
2019-04-25T11:26:36.176Z,99744.36
2019-04-25T11:29:05.927Z,99729.64
2019-04-25T11:31:37.110Z,99731.77
2019-04-25T11:34:07.478Z,99738.45
2019-04-25T11:36:37.092Z,99725.84
2019-04-25T11:39:13.614Z,99720.47
2019-04-25T11:41:45.627Z,99726.49
2019-04-25T11:44:14.473Z,99709.73
2019-04-25T11:46:45.327Z,99711.33
2019-04-25T11:49:15.462Z,99694.06
2019-04-25T11:51:46.108Z,99695.92
2019-04-25T11:54:15.910Z,99706.11
2019-04-25T11:56:46.989Z,99691.78
2019-04-25T11:59:16.794Z,99675.45
2019-04-25T12:01:47.646Z,99671.16
2019-04-25T12:04:17.220Z,99677.09
2019-04-25T12:06:47.550Z,99668.83
2019-04-25T12:09:17.611Z,99655.30
2019-04-25T12:11:48.483Z,99650.09
2019-04-25T12:14:18.267Z,99649.39
2019-04-25T12:16:50.323Z,99657.22
2019-04-25T12:19:19.014Z,99646.40
2019-04-25T12:21:48.527Z,99651.84
2019-04-25T12:24:18.129Z,99661.09
2019-04-25T12:26:48.673Z,99665.48
2019-04-25T12:29:18.173Z,99661.78
2019-04-25T12:31:47.729Z,99655.52
2019-04-25T12:34:17.450Z,99656.48
2019-04-25T12:36:47.574Z,99670.70
2019-04-25T12:39:18.008Z,99668.84
2019-04-25T12:41:49.009Z,99656.45
2019-04-25T12:44:21.349Z,99663.37
2019-04-25T12:46:54.219Z,99657.66
2019-04-25T12:49:24.184Z,99649.77
2019-04-25T12:51:53.748Z,99654.93
2019-04-25T12:54:23.872Z,99653.09
2019-04-25T12:56:53.741Z,99644.36
2019-04-25T12:59:23.237Z,99656.13
2019-04-25T13:01:54.508Z,99658.86
2019-04-25T13:04:24.015Z,99665.61
2019-04-25T13:06:54.453Z,99663.94
2019-04-25T13:09:23.995Z,99671.16
2019-04-25T13:11:53.530Z,99665.09
2019-04-25T13:14:23.121Z,99667.36
2019-04-25T13:16:52.732Z,99663.70
2019-04-25T13:19:25.946Z,99664.90
2019-04-25T13:21:54.359Z,99675.52
2019-04-25T13:24:24.019Z,99668.72
2019-04-25T13:27:10.101Z,99669.92
2019-04-25T13:29:39.393Z,99672.01
2019-04-25T13:32:17.295Z,99671.14
2019-04-25T13:34:50.920Z,99663.03
2019-04-25T13:37:20.494Z,99659.48
2019-04-25T13:39:50.114Z,99655.77
2019-04-25T13:42:19.851Z,99651.10
2019-04-25T13:44:49.485Z,99646.88
2019-04-25T13:47:19.085Z,99639.37
2019-04-25T13:49:48.592Z,99630.81
2019-04-25T13:52:18.108Z,99625.55
2019-04-25T13:54:47.762Z,99622.17
2019-04-25T13:57:17.246Z,99624.08
2019-04-25T13:59:46.976Z,99626.63
2019-04-25T14:02:16.647Z,99614.55
2019-04-25T14:04:46.192Z,99619.69
2019-04-25T14:07:15.684Z,99614.95
2019-04-25T14:09:45.224Z,99611.80
2019-04-25T14:12:14.987Z,99598.95
2019-04-25T14:14:44.458Z,99599.28
2019-04-25T14:17:25.830Z,99592.91
2019-04-25T14:20:00.963Z,99598.28
2019-04-25T14:22:30.531Z,99599.59
2019-04-25T14:25:00.265Z,99592.38
2019-04-25T14:27:30.240Z,99600.47
2019-04-25T14:29:59.721Z,99594.83
2019-04-25T14:32:30.139Z,99602.34
2019-04-25T14:34:59.726Z,99598.55
2019-04-25T14:37:32.203Z,99595.06
2019-04-25T14:40:00.482Z,99598.62
2019-04-25T14:42:30.715Z,99604.82
2019-04-25T14:45:00.185Z,99604.88
2019-04-25T14:47:29.834Z,99603.88
2019-04-25T14:49:59.296Z,99594.04
2019-04-25T14:52:28.882Z,99595.03
2019-04-25T14:54:58.221Z,99596.40
2019-04-25T14:57:29.804Z,99595.55
2019-04-25T15:00:02.033Z,99597.83
2019-04-25T15:02:32.476Z,99597.48
2019-04-25T15:05:05.588Z,99599.70
2019-04-25T15:07:35.172Z,99611.73
2019-04-25T15:10:06.461Z,99608.92
2019-04-25T15:12:35.947Z,99607.08
2019-04-25T15:15:06.963Z,99607.85
2019-04-25T15:17:45.171Z,99604.70
2019-04-25T15:20:09.090Z,99596.72
2019-04-25T15:22:38.649Z,99594.16
2019-04-25T15:25:08.417Z,99589.43
2019-04-25T15:27:37.948Z,99587.85
2019-04-25T15:30:09.992Z,99583.13
2019-04-25T15:32:39.597Z,99583.41
2019-04-25T15:35:10.965Z,99573.83
2019-04-25T15:37:50.003Z,99564.53
2019-04-25T15:40:22.208Z,99572.13
2019-04-25T15:43:00.206Z,99578.13
2019-04-25T15:45:34.267Z,99585.43
2019-04-25T15:48:05.543Z,99585.27
2019-04-25T15:50:34.994Z,99590.11
2019-04-25T15:53:04.575Z,99595.58
2019-04-25T15:55:34.802Z,99597.58
2019-04-25T15:58:04.708Z,99602.44
2019-04-25T16:00:37.767Z,99595.41
2019-04-25T16:03:08.688Z,99590.55
2019-04-25T16:05:38.385Z,99597.41
2019-04-25T16:08:08.526Z,99600.86
2019-04-25T16:10:38.013Z,99597.53
2019-04-25T16:13:07.957Z,99599.80
2019-04-25T16:15:37.526Z,99607.90
2019-04-25T16:18:07.454Z,99604.56
2019-04-25T16:20:37.040Z,99598.22
2019-04-25T16:23:07.654Z,99613.18
2019-04-25T16:25:37.254Z,99616.28
2019-04-25T16:28:06.779Z,99613.55
2019-04-25T16:30:36.535Z,99615.42
2019-04-25T16:33:06.619Z,99614.27
2019-04-25T16:35:36.151Z,99611.28
2019-04-25T16:38:06.702Z,99605.14
2019-04-25T16:40:36.332Z,99608.24
2019-04-25T16:43:07.670Z,99626.72
2019-04-25T16:45:38.885Z,99638.23
2019-04-25T16:48:08.420Z,99651.26
2019-04-25T16:50:38.352Z,99661.67
2019-04-25T16:53:07.873Z,99673.51
2019-04-25T16:55:37.431Z,99684.98
2019-04-25T16:58:08.464Z,99684.31
2019-04-25T17:00:45.333Z,99684.25
2019-04-25T17:03:15.546Z,99697.55
2019-04-25T17:05:45.272Z,99702.59
2019-04-25T17:08:14.815Z,99706.41
2019-04-25T17:10:44.436Z,99711.34
2019-04-25T17:13:14.084Z,99712.34
2019-04-25T17:15:54.123Z,99722.72
2019-04-25T17:18:25.340Z,99732.09
2019-04-25T17:20:56.527Z,99735.88
2019-04-25T17:23:26.089Z,99732.84
2019-04-25T17:25:55.660Z,99744.45
2019-04-25T17:28:25.342Z,99733.47
2019-04-25T17:30:56.565Z,99749.30
2019-04-25T17:33:31.279Z,99756.89
2019-04-25T17:36:06.264Z,99749.01
2019-04-25T17:38:37.654Z,99738.82
2019-04-25T17:41:07.277Z,99740.17
2019-04-25T17:43:36.845Z,99738.52
2019-04-25T17:46:08.031Z,99756.25
2019-04-25T17:48:38.266Z,99770.55
2019-04-25T17:51:07.786Z,99756.89
2019-04-25T17:53:37.372Z,99754.17
2019-04-25T17:56:07.007Z,99739.27
2019-04-25T17:58:36.781Z,99734.97
2019-04-25T18:01:08.216Z,99735.29
2019-04-25T18:03:37.836Z,99741.36
2019-04-25T18:06:07.365Z,99748.81
2019-04-25T18:08:37.494Z,99762.86
2019-04-25T18:11:07.767Z,99771.93
2019-04-25T18:13:38.801Z,99774.95
2019-04-25T18:16:19.167Z,99782.19
2019-04-25T18:18:59.207Z,99786.03
2019-04-25T18:21:28.670Z,99795.03
2019-04-25T18:24:15.873Z,99793.09
2019-04-25T18:26:53.192Z,99808.29
2019-04-25T18:29:24.115Z,99822.11
2019-04-25T18:31:54.036Z,99828.55
2019-04-25T18:34:28.849Z,99834.76
2019-04-25T18:36:58.086Z,99836.97
2019-04-25T18:39:29.206Z,99847.78
2019-04-25T18:42:08.057Z,99850.80
2019-04-25T18:44:37.872Z,99852.62
2019-04-25T18:47:07.448Z,99872.37
2019-04-25T18:49:37.659Z,99874.77
2019-04-25T18:52:09.805Z,99871.20
2019-04-25T18:54:47.324Z,99888.13
2019-04-25T18:57:21.640Z,99902.48
2019-04-25T19:00:07.777Z,99894.53
2019-04-25T19:02:40.035Z,99886.37
2019-04-25T19:05:24.480Z,99902.50
2019-04-25T19:07:54.112Z,99896.55
2019-04-25T19:10:24.200Z,99917.67
2019-04-25T19:12:53.839Z,99925.25
2019-04-25T19:15:23.521Z,99919.84
2019-04-25T19:17:53.157Z,99917.25
2019-04-25T19:20:22.768Z,99930.00
2019-04-25T19:22:52.665Z,99918.27
2019-04-25T19:25:22.330Z,99936.16
2019-04-25T19:28:11.291Z,99936.36
2019-04-25T19:30:41.087Z,99937.55
2019-04-25T19:33:10.741Z,99934.90
2019-04-25T19:35:40.770Z,99943.04
2019-04-25T19:38:11.176Z,99945.20
2019-04-25T19:40:48.773Z,99954.93
2019-04-25T19:43:22.809Z,99955.72
2019-04-25T19:45:52.357Z,99964.45
2019-04-25T19:48:21.928Z,99942.73
2019-04-25T19:50:52.738Z,99969.56
2019-04-25T19:53:22.436Z,99950.25
2019-04-25T19:56:11.305Z,99958.37
2019-04-25T19:58:42.053Z,99952.16
2019-04-25T20:01:11.653Z,99954.13
2019-04-25T20:03:53.392Z,99952.91
2019-04-25T20:06:20.887Z,99933.98
2019-04-25T20:09:16.789Z,99938.08
2019-04-25T20:14:25.698Z,99955.47
2019-04-25T20:16:55.205Z,99961.39
2019-04-25T20:19:24.679Z,99961.76
2019-04-25T20:21:54.220Z,99946.39
2019-04-25T20:24:23.713Z,99942.58
2019-04-25T20:26:53.237Z,99954.47
2019-04-25T20:29:22.699Z,99965.75
2019-04-25T20:31:52.786Z,99963.12
2019-04-25T20:34:22.440Z,99954.53
2019-04-25T20:36:51.944Z,99941.39
2019-04-25T20:39:40.792Z,99950.50
2019-04-25T20:42:10.331Z,99961.36
2019-04-25T20:44:39.840Z,99975.03
2019-04-25T20:47:09.386Z,99968.44
2019-04-25T20:49:38.898Z,99973.38
2019-04-25T20:52:08.454Z,99975.28
2019-04-25T20:54:37.955Z,99978.62
2019-04-25T20:57:07.602Z,99975.22
2019-04-25T20:59:37.114Z,99973.98
2019-04-25T21:02:08.052Z,99972.76
2019-04-25T21:04:41.538Z,99968.78
2019-04-25T21:07:11.764Z,99969.14
2019-04-25T21:09:41.630Z,99967.94
2019-04-25T21:12:11.104Z,99966.72
2019-04-25T21:14:51.197Z,99960.53
2019-04-25T21:17:24.900Z,99962.48
2019-04-25T21:19:56.317Z,99961.03
2019-04-25T21:22:25.888Z,99962.77
2019-04-25T21:24:55.845Z,99966.48
2019-04-25T21:27:25.555Z,99973.56
2019-04-25T21:29:55.603Z,99972.72
2019-04-25T21:32:53.086Z,99974.62
2019-04-25T21:35:23.993Z,99968.45
2019-04-25T21:37:53.647Z,99966.83
2019-04-25T21:40:39.751Z,99970.92
2019-04-25T21:43:11.959Z,99978.41
2019-04-25T21:45:41.895Z,99990.27
2019-04-25T21:48:30.986Z,99984.08
2019-04-25T21:51:03.437Z,99982.06
2019-04-25T21:53:32.956Z,99992.53
2019-04-25T21:56:02.745Z,100010.34
2019-04-25T21:58:32.590Z,100018.25
2019-04-25T22:01:04.491Z,100022.20
2019-04-25T22:03:34.100Z,100029.13
2019-04-25T22:06:05.108Z,100037.45
2019-04-25T22:08:34.586Z,100033.87
2019-04-25T22:11:04.105Z,100028.31
2019-04-25T22:13:34.059Z,100025.19
2019-04-25T22:16:04.105Z,100008.33
2019-04-25T22:18:33.932Z,100001.18
2019-04-25T22:21:04.226Z,99993.22
2019-04-25T22:23:34.235Z,100004.31
2019-04-25T22:26:04.901Z,100007.48
2019-04-25T22:28:34.806Z,100023.70
2019-04-25T22:31:08.803Z,100017.30
2019-04-25T22:33:57.173Z,99998.84
2019-04-25T22:36:28.262Z,99990.67
2019-04-25T22:39:17.126Z,99985.31
2019-04-25T22:41:50.002Z,99973.58
2019-04-25T22:44:20.284Z,99974.09
2019-04-25T22:46:50.174Z,99976.80
2019-04-25T22:49:19.633Z,99985.44
2019-04-25T22:51:49.116Z,99971.30
2019-04-25T22:54:18.873Z,99969.06
2019-04-25T22:56:48.412Z,99969.59
2019-04-25T22:59:18.179Z,99966.36
2019-04-25T23:01:47.450Z,99969.42
2019-04-25T23:04:19.617Z,99957.06
2019-04-25T23:06:49.185Z,99947.11
2019-04-25T23:09:38.878Z,99947.22
2019-04-25T23:12:08.784Z,99951.69
2019-04-25T23:14:38.572Z,99950.59
2019-04-25T23:17:08.057Z,99944.19
2019-04-25T23:19:37.544Z,99941.73
2019-04-25T23:22:07.394Z,99940.67
2019-04-25T23:24:38.605Z,99954.91
2019-04-25T23:27:15.835Z,99953.02
2019-04-25T23:29:45.292Z,99957.13
2019-04-25T23:32:15.153Z,99955.87
2019-04-25T23:34:44.651Z,99957.58
2019-04-25T23:37:14.263Z,99965.45
2019-04-25T23:39:44.966Z,99978.65
2019-04-25T23:42:14.446Z,99993.80
2019-04-25T23:44:45.047Z,99989.00
2019-04-25T23:47:14.574Z,99996.66
2019-04-25T23:49:44.039Z,100008.33
2019-04-25T23:52:15.027Z,100000.75
2019-04-25T23:54:44.809Z,99995.22
2019-04-25T23:57:15.779Z,99990.03
2019-04-25T23:59:45.341Z,99997.34
